Terminal Aerodrome Forecast
Issued by NWS Duluth, MN

Home | Current Version | Previous Version | Text Only | Print | Product List | Glossary On
Versions: 1 2 3 4 5 6 7 8 9 10 11 12 13 14 15 16 17 18 19 20 21 22 23
000
FTUS43 KDLH 181200 AAA
TAFINL
TAF AMD
KINL 181215Z 1812/1912 14007KT P6SM OVC015
      TEMPO 1812/1814 OVC004
     FM181400 15010KT P6SM SCT015 BKN040
     FM190000 16010KT P6SM BKN025
     FM190400 17010KT P6SM VCSH OVC015 WS020/20040KT=

USA.gov is the U.S. government's official web portal to all federal, state and local government web resources and services.